createdAt,value
2017-11-29T00:00:37.137Z,81.41
2017-11-29T00:01:37.150Z,81.6
2017-11-29T00:02:37.155Z,81.23
2017-11-29T00:03:37.177Z,81.79
2017-11-29T00:04:37.216Z,81.7
2017-11-29T00:05:37.194Z,81.23
2017-11-29T00:06:37.222Z,81.79
2017-11-29T00:07:37.219Z,81.23
2017-11-29T00:08:37.226Z,81.79
2017-11-29T00:09:36.971Z,81.41
2017-11-29T00:10:36.983Z,81.51
2017-11-29T00:11:37.274Z,81.7
2017-11-29T00:12:37.276Z,81.7
2017-11-29T00:13:37.288Z,81.51
2017-11-29T00:14:37.326Z,81.6
2017-11-29T00:15:37.050Z,81.79
2017-11-29T00:16:37.052Z,81.98
2017-11-29T00:17:37.333Z,81.41
2017-11-29T00:18:37.340Z,81.32
2017-11-29T00:19:37.375Z,81.79
2017-11-29T00:20:37.372Z,81.79
2017-11-29T00:21:37.379Z,81.79
2017-11-29T00:22:37.120Z,81.98
2017-11-29T00:23:37.403Z,81.51
2017-11-29T00:24:37.414Z,81.7
2017-11-29T00:25:37.435Z,81.79
2017-11-29T00:26:37.441Z,81.7
2017-11-29T00:27:37.448Z,81.88
2017-11-29T00:28:37.458Z,81.7
2017-11-29T00:29:37.473Z,81.41
2017-11-29T00:30:37.482Z,81.41
2017-11-29T00:31:37.501Z,82.08
2017-11-29T00:32:37.532Z,81.7
2017-11-29T00:33:37.517Z,81.7
2017-11-29T00:34:37.531Z,81.7
2017-11-29T00:35:37.545Z,81.7
2017-11-29T00:36:37.561Z,81.6
2017-11-29T00:37:37.561Z,81.6
2017-11-29T00:38:37.305Z,81.7
2017-11-29T00:39:37.587Z,81.7
2017-11-29T00:40:37.603Z,82.08
2017-11-29T00:41:37.613Z,81.7
2017-11-29T00:42:37.627Z,81.7
2017-11-29T00:43:37.635Z,81.51
2017-11-29T00:44:37.652Z,81.41
2017-11-29T00:45:37.656Z,81.51
2017-11-29T00:46:37.662Z,81.51
2017-11-29T00:47:37.686Z,82.36
2017-11-29T00:48:37.687Z,82.08
2017-11-29T00:49:37.429Z,82.08
2017-11-29T00:50:37.711Z,82.27
2017-11-29T00:51:37.458Z,82.08
2017-11-29T00:52:37.463Z,82.27
2017-11-29T00:53:37.749Z,82.36
2017-11-29T00:54:37.759Z,81.51
2017-11-29T00:55:37.501Z,82.08
2017-11-29T00:56:37.786Z,81.7
2017-11-29T00:57:37.798Z,81.7
2017-11-29T00:58:37.807Z,81.41
2017-11-29T00:59:37.830Z,81.7
2017-11-29T01:00:37.826Z,81.7
2017-11-29T01:01:37.846Z,82.36
2017-11-29T01:02:37.845Z,82.36
2017-11-29T01:03:37.860Z,81.7
2017-11-29T01:04:37.878Z,81.79
2017-11-29T01:05:37.611Z,81.41
2017-11-29T01:06:37.903Z,81.51
2017-11-29T01:07:37.903Z,81.41
2017-11-29T01:08:37.647Z,81.41
2017-11-29T01:09:37.926Z,81.51
2017-11-29T01:10:37.676Z,81.7
2017-11-29T01:11:37.954Z,81.7
2017-11-29T01:12:38.055Z,81.7
2017-11-29T01:13:37.977Z,81.41
2017-11-29T01:14:38.003Z,82.36
2017-11-29T01:15:38.012Z,81.51
2017-11-29T01:16:38.007Z,82.36
2017-11-29T01:17:37.753Z,82.17
2017-11-29T01:18:38.032Z,81.88
2017-11-29T01:19:37.774Z,82.27
2017-11-29T01:20:38.053Z,82.08
2017-11-29T01:21:37.796Z,81.98
2017-11-29T01:22:38.081Z,81.88
2017-11-29T01:23:38.091Z,82.08
2017-11-29T01:24:38.103Z,81.88
2017-11-29T01:25:38.118Z,82.08
2017-11-29T01:26:37.854Z,82.08
2017-11-29T01:27:38.139Z,82.36
2017-11-29T01:28:37.875Z,82.08
2017-11-29T01:29:38.154Z,82.08
2017-11-29T01:30:38.170Z,81.88
2017-11-29T01:31:38.184Z,82.08
2017-11-29T01:32:38.193Z,81.98
2017-11-29T01:33:38.200Z,82.08
2017-11-29T01:34:38.212Z,81.88
2017-11-29T01:35:38.236Z,82.17
2017-11-29T01:36:37.970Z,81.98
2017-11-29T01:37:38.251Z,81.88
2017-11-29T01:38:38.258Z,81.88
2017-11-29T01:39:38.271Z,82.08
2017-11-29T01:40:38.293Z,81.88
2017-11-29T01:41:38.308Z,82.08
2017-11-29T01:42:38.305Z,82.17
2017-11-29T01:43:38.332Z,82.17
2017-11-29T01:44:38.061Z,82.17
2017-11-29T01:45:38.346Z,82.08
2017-11-29T01:46:38.359Z,82.08
2017-11-29T01:47:38.362Z,81.88
2017-11-29T01:48:38.383Z,82.08
2017-11-29T01:49:38.387Z,82.17
2017-11-29T01:50:38.404Z,82.08
2017-11-29T01:51:38.412Z,81.79
2017-11-29T01:52:38.420Z,82.08
2017-11-29T01:53:38.434Z,82.08
2017-11-29T01:54:38.444Z,82.08
2017-11-29T01:55:38.461Z,81.79
2017-11-29T01:56:38.201Z,81.88
2017-11-29T01:57:38.480Z,81.98
2017-11-29T01:58:38.493Z,82.27
2017-11-29T01:59:38.507Z,81.88
2017-11-29T02:00:38.513Z,81.79
2017-11-29T02:01:38.254Z,81.88
2017-11-29T02:02:38.543Z,82.17
2017-11-29T02:03:38.620Z,82.17
2017-11-29T02:04:38.559Z,81.88
2017-11-29T02:05:38.577Z,82.08
2017-11-29T02:06:38.580Z,82.27
2017-11-29T02:07:38.592Z,81.79
2017-11-29T02:08:38.607Z,81.98
2017-11-29T02:09:38.618Z,82.08
2017-11-29T02:10:38.628Z,81.88
2017-11-29T02:11:38.642Z,82.08
2017-11-29T02:12:38.651Z,81.88
2017-11-29T02:13:38.394Z,81.98
2017-11-29T02:14:38.685Z,81.98
2017-11-29T02:15:38.689Z,81.98
2017-11-29T02:16:38.756Z,82.08
2017-11-29T02:17:38.750Z,81.79
2017-11-29T02:18:38.720Z,81.98
2017-11-29T02:19:38.730Z,82.17
2017-11-29T02:20:38.743Z,81.98
2017-11-29T02:21:38.750Z,82.17
2017-11-29T02:22:38.761Z,81.79
2017-11-29T02:23:38.502Z,82.08
2017-11-29T02:24:38.789Z,82.08
2017-11-29T02:25:38.796Z,81.98
2017-11-29T02:26:38.806Z,82.08
2017-11-29T02:27:38.820Z,82.08
2017-11-29T02:28:38.826Z,81.98
2017-11-29T02:29:38.573Z,82.08
2017-11-29T02:30:38.853Z,82.17
2017-11-29T02:31:38.885Z,82.08
2017-11-29T02:32:38.888Z,82.17
2017-11-29T02:33:38.893Z,82.08
2017-11-29T02:34:38.906Z,81.98
2017-11-29T02:35:38.915Z,81.98
2017-11-29T02:36:38.933Z,81.98
2017-11-29T02:37:38.934Z,82.17
2017-11-29T02:38:38.950Z,81.98
2017-11-29T02:39:38.695Z,82.08
2017-11-29T02:40:38.966Z,82.08
2017-11-29T02:41:38.715Z,81.98
2017-11-29T02:42:38.721Z,81.79
2017-11-29T02:43:38.739Z,82.17
2017-11-29T02:44:39.017Z,81.79
2017-11-29T02:45:39.030Z,82.08
2017-11-29T02:46:39.032Z,81.7
2017-11-29T02:47:39.044Z,81.79
2017-11-29T02:48:38.788Z,82.08
2017-11-29T02:49:39.074Z,82.17
2017-11-29T02:50:39.090Z,82.36
2017-11-29T02:51:39.094Z,82.46
2017-11-29T02:52:38.831Z,82.36
2017-11-29T02:53:39.111Z,82.27
2017-11-29T02:54:38.855Z,82.46
2017-11-29T02:55:39.134Z,82.27
2017-11-29T02:56:39.145Z,82.27
2017-11-29T02:57:39.207Z,82.17
2017-11-29T02:58:39.171Z,82.27
2017-11-29T02:59:39.180Z,82.36
2017-11-29T03:00:38.924Z,81.98
2017-11-29T03:01:39.208Z,82.08
2017-11-29T03:02:38.942Z,82.17
2017-11-29T03:03:39.225Z,82.08
2017-11-29T03:04:39.243Z,81.88
2017-11-29T03:05:39.244Z,82.17
2017-11-29T03:06:39.268Z,82.08
2017-11-29T03:07:39.270Z,81.88
2017-11-29T03:08:39.322Z,82.36
2017-11-29T03:09:39.295Z,81.88
2017-11-29T03:10:39.032Z,82.08
2017-11-29T03:11:39.045Z,81.88
2017-11-29T03:12:39.330Z,82.08
2017-11-29T03:13:39.333Z,81.88
2017-11-29T03:14:39.353Z,82.08
2017-11-29T03:15:39.361Z,81.98
2017-11-29T03:16:39.367Z,82.08
2017-11-29T03:17:39.389Z,81.88
2017-11-29T03:18:39.392Z,82.08
2017-11-29T03:19:39.136Z,82.17
2017-11-29T03:20:39.145Z,82.08
2017-11-29T03:21:39.439Z,81.88
2017-11-29T03:22:39.440Z,81.98
2017-11-29T03:23:39.451Z,81.98
2017-11-29T03:24:39.189Z,82.74
2017-11-29T03:25:39.475Z,81.98
2017-11-29T03:26:39.481Z,81.88
2017-11-29T03:27:39.222Z,82.65
2017-11-29T03:28:39.508Z,82.65
2017-11-29T03:29:39.246Z,82.08
2017-11-29T03:30:39.538Z,82.17
2017-11-29T03:31:39.542Z,82.17
2017-11-29T03:32:39.556Z,81.88
2017-11-29T03:33:39.561Z,82.27
2017-11-29T03:34:39.574Z,82.36
2017-11-29T03:35:39.619Z,82.36
2017-11-29T03:36:39.592Z,82.55
2017-11-29T03:37:39.611Z,82.65
2017-11-29T03:38:39.620Z,82.46
2017-11-29T03:39:39.637Z,82.46
2017-11-29T03:40:39.646Z,82.17
2017-11-29T03:41:39.650Z,82.36
2017-11-29T03:42:39.393Z,82.27
2017-11-29T03:43:39.676Z,82.27
2017-11-29T03:44:39.687Z,82.27
2017-11-29T03:45:39.719Z,82.55
2017-11-29T03:46:39.436Z,82.46
2017-11-29T03:47:39.717Z,82.65
2017-11-29T03:48:39.737Z,82.46
2017-11-29T03:49:39.743Z,82.36
2017-11-29T03:50:39.770Z,82.46
2017-11-29T03:51:39.768Z,82.36
2017-11-29T03:52:39.775Z,82.46
2017-11-29T03:53:39.520Z,82.27
2017-11-29T03:54:39.808Z,82.65
2017-11-29T03:55:39.824Z,82.55
2017-11-29T03:56:39.836Z,82.36
2017-11-29T03:57:39.833Z,82.55
2017-11-29T03:58:39.850Z,82.65
2017-11-29T03:59:39.851Z,82.36
2017-11-29T04:00:39.903Z,82.46
2017-11-29T04:01:39.878Z,82.93
2017-11-29T04:02:39.891Z,82.27
2017-11-29T04:03:39.893Z,82.36
2017-11-29T04:04:39.909Z,82.74
2017-11-29T04:05:39.651Z,82.74
2017-11-29T04:06:39.932Z,82.93
2017-11-29T04:07:39.941Z,82.46
2017-11-29T04:08:39.951Z,83.03
2017-11-29T04:09:39.966Z,82.74
2017-11-29T04:10:39.704Z,82.08
2017-11-29T04:11:39.992Z,82.93
2017-11-29T04:12:40.001Z,82.27
2017-11-29T04:13:40.007Z,82.74
2017-11-29T04:14:40.023Z,83.03
2017-11-29T04:15:40.033Z,82.36
2017-11-29T04:16:40.051Z,82.46
2017-11-29T04:17:40.057Z,82.27
2017-11-29T04:18:40.066Z,82.46
2017-11-29T04:19:40.082Z,82.17
2017-11-29T04:20:39.818Z,82.55
2017-11-29T04:21:39.827Z,82.65
2017-11-29T04:22:39.838Z,82.46
2017-11-29T04:23:40.129Z,82.27
2017-11-29T04:24:40.135Z,82.46
2017-11-29T04:25:39.869Z,82.27
2017-11-29T04:26:40.166Z,82.46
2017-11-29T04:27:40.163Z,82.74
2017-11-29T04:28:40.179Z,82.93
2017-11-29T04:29:40.191Z,82.74
2017-11-29T04:30:40.199Z,82.84
2017-11-29T04:31:40.224Z,82.84
2017-11-29T04:32:40.223Z,82.74
2017-11-29T04:33:40.102Z,82.84
2017-11-29T04:34:40.244Z,82.36
2017-11-29T04:35:40.255Z,82.74
2017-11-29T04:36:40.264Z,82.46
2017-11-29T04:37:40.288Z,82.74
2017-11-29T04:38:40.019Z,82.74
2017-11-29T04:39:40.304Z,82.93
2017-11-29T04:40:40.322Z,82.36
2017-11-29T04:41:40.321Z,82.27
2017-11-29T04:42:40.362Z,82.84
2017-11-29T04:43:40.077Z,82.84
2017-11-29T04:44:40.359Z,82.36
2017-11-29T04:45:40.368Z,82.84
2017-11-29T04:46:40.382Z,82.74
2017-11-29T04:47:40.117Z,82.84
2017-11-29T04:48:40.402Z,82.93
2017-11-29T04:49:40.408Z,83.03
2017-11-29T04:50:40.149Z,83.03
2017-11-29T04:51:40.435Z,82.93
2017-11-29T04:52:40.443Z,83.03
2017-11-29T04:53:40.185Z,82.93
2017-11-29T04:54:40.195Z,82.84
2017-11-29T04:55:40.477Z,82.93
2017-11-29T04:56:40.217Z,82.79
2017-11-29T04:57:40.506Z,82.46
2017-11-29T04:58:40.637Z,82.32
2017-11-29T04:59:40.660Z,82.13
2017-11-29T05:00:40.532Z,82.46
2017-11-29T05:01:40.542Z,82.17
2017-11-29T05:02:40.281Z,82.32
2017-11-29T05:03:40.575Z,82.65
2017-11-29T05:04:40.576Z,82.46
2017-11-29T05:05:40.318Z,82.36
2017-11-29T05:06:40.600Z,82.13
2017-11-29T05:07:40.613Z,82.17
2017-11-29T05:08:40.632Z,82.23
2017-11-29T05:09:40.632Z,82.93
2017-11-29T05:10:40.640Z,82.89
2017-11-29T05:11:40.649Z,82.93
2017-11-29T05:12:40.530Z,82.7
2017-11-29T05:13:40.673Z,82.36
2017-11-29T05:14:40.695Z,82.42
2017-11-29T05:15:40.693Z,82.79
2017-11-29T05:16:40.751Z,82.79
2017-11-29T05:17:40.723Z,82.79
2017-11-29T05:18:40.499Z,82.79
2017-11-29T05:19:40.740Z,82.79
2017-11-29T05:20:40.490Z,82.79
2017-11-29T05:21:40.764Z,82.7
2017-11-29T05:22:40.515Z,82.98
2017-11-29T05:23:40.514Z,82.7
2017-11-29T05:24:40.805Z,82.79
2017-11-29T05:25:40.812Z,82.98
2017-11-29T05:26:40.549Z,82.23
2017-11-29T05:27:40.555Z,82.36
2017-11-29T05:28:40.849Z,82.42
2017-11-29T05:29:40.582Z,82.6
2017-11-29T05:30:40.869Z,82.51
2017-11-29T05:31:40.877Z,82.42
2017-11-29T05:32:40.887Z,82.23
2017-11-29T05:33:40.895Z,82.32
2017-11-29T05:34:40.905Z,82.7
2017-11-29T05:35:40.945Z,82.89
2017-11-29T05:36:40.929Z,82.32
2017-11-29T05:37:40.945Z,82.7
2017-11-29T05:38:40.953Z,82.23
2017-11-29T05:39:40.970Z,82.13
2017-11-29T05:40:40.981Z,82.42
2017-11-29T05:41:40.986Z,82.79
2017-11-29T05:42:40.991Z,82.79
2017-11-29T05:43:40.737Z,82.79
2017-11-29T05:44:41.025Z,82.98
2017-11-29T05:45:41.048Z,82.79
2017-11-29T05:46:41.035Z,82.79
2017-11-29T05:47:41.069Z,82.89
2017-11-29T05:48:40.788Z,82.42
2017-11-29T05:49:41.072Z,82.32
2017-11-29T05:50:40.808Z,82.98
2017-11-29T05:51:40.819Z,82.79
2017-11-29T05:52:41.112Z,82.89
2017-11-29T05:53:41.161Z,82.32
2017-11-29T05:54:41.122Z,82.79
2017-11-29T05:55:41.138Z,82.79
2017-11-29T05:56:41.146Z,82.79
2017-11-29T05:57:41.162Z,82.79
2017-11-29T05:58:41.167Z,82.79
2017-11-29T05:59:40.913Z,83.08
2017-11-29T06:00:41.190Z,82.32
2017-11-29T06:01:40.934Z,82.7
2017-11-29T06:02:41.338Z,82.7
2017-11-29T06:03:40.957Z,82.04
2017-11-29T06:04:41.266Z,82.89
2017-11-29T06:05:41.256Z,82.89
2017-11-29T06:06:41.263Z,82.42
2017-11-29T06:07:40.998Z,82.79
2017-11-29T06:08:41.285Z,82.32
2017-11-29T06:09:41.296Z,82.98
2017-11-29T06:10:41.033Z,82.98
2017-11-29T06:11:41.042Z,82.98
2017-11-29T06:12:41.050Z,82.6
2017-11-29T06:13:41.333Z,82.98
2017-11-29T06:14:41.074Z,82.7
2017-11-29T06:15:41.085Z,82.79
2017-11-29T06:16:41.363Z,82.79
2017-11-29T06:17:41.377Z,82.79
2017-11-29T06:18:41.393Z,82.23
2017-11-29T06:19:41.393Z,82.42
2017-11-29T06:20:41.411Z,82.7
2017-11-29T06:21:41.148Z,82.79
2017-11-29T06:22:41.433Z,82.79
2017-11-29T06:23:41.441Z,82.7
2017-11-29T06:24:41.458Z,82.51
2017-11-29T06:25:41.468Z,82.7
2017-11-29T06:26:41.490Z,82.6
2017-11-29T06:27:41.216Z,82.7
2017-11-29T06:28:41.497Z,82.7
2017-11-29T06:29:41.515Z,82.42
2017-11-29T06:30:41.546Z,82.7
2017-11-29T06:31:41.533Z,82.42
2017-11-29T06:32:41.545Z,82.51
2017-11-29T06:33:41.579Z,82.6
2017-11-29T06:34:41.561Z,82.7
2017-11-29T06:35:41.575Z,82.7
2017-11-29T06:36:41.581Z,82.51
2017-11-29T06:37:41.601Z,82.7
2017-11-29T06:38:41.614Z,82.7
2017-11-29T06:39:41.640Z,82.89
2017-11-29T06:40:41.355Z,82.98
2017-11-29T06:41:41.368Z,82.51
2017-11-29T06:42:41.649Z,82.89
2017-11-29T06:43:41.661Z,82.51
2017-11-29T06:44:41.674Z,82.89
2017-11-29T06:45:41.687Z,82.79
2017-11-29T06:46:41.423Z,82.7
2017-11-29T06:47:41.710Z,82.79
2017-11-29T06:48:41.714Z,82.6
2017-11-29T06:49:41.729Z,82.7
2017-11-29T06:50:41.737Z,82.6
2017-11-29T06:51:41.477Z,83.08
2017-11-29T06:52:41.490Z,83.08
2017-11-29T06:53:41.773Z,83.08
2017-11-29T06:54:41.511Z,83.17
2017-11-29T06:55:41.518Z,83.55
2017-11-29T06:56:41.801Z,83.65
2017-11-29T06:57:41.821Z,83.55
2017-11-29T06:58:41.826Z,83.36
2017-11-29T06:59:41.831Z,83.65
2017-11-29T07:00:41.577Z,83.65
2017-11-29T07:01:41.857Z,83.46
2017-11-29T07:02:41.866Z,83.65
2017-11-29T07:03:41.605Z,84.03
2017-11-29T07:04:41.889Z,83.94
2017-11-29T07:05:41.901Z,83.84
2017-11-29T07:06:41.638Z,84.22
2017-11-29T07:07:41.919Z,83.84
2017-11-29T07:08:41.931Z,84.03
2017-11-29T07:09:41.971Z,84.12
2017-11-29T07:10:41.955Z,84.17
2017-11-29T07:11:41.692Z,84.17
2017-11-29T07:12:41.987Z,84.36
2017-11-29T07:13:41.985Z,84.17
2017-11-29T07:14:42.006Z,84.26
2017-11-29T07:15:41.733Z,84.36
2017-11-29T07:16:42.021Z,84.26
2017-11-29T07:17:42.050Z,84.45
2017-11-29T07:18:42.038Z,84.45
2017-11-29T07:19:42.053Z,83.69
2017-11-29T07:20:41.790Z,83.59
2017-11-29T07:21:42.112Z,83.88
2017-11-29T07:22:42.086Z,83.22
2017-11-29T07:23:42.099Z,83.31
2017-11-29T07:24:42.109Z,83.22
2017-11-29T07:25:42.120Z,83.12
2017-11-29T07:26:41.856Z,83.5
2017-11-29T07:27:42.155Z,83.4
2017-11-29T07:28:42.148Z,83.5
2017-11-29T07:29:42.164Z,83.31
2017-11-29T07:30:42.169Z,83.31
2017-11-29T07:31:42.183Z,83.5
2017-11-29T07:32:42.198Z,83.4
2017-11-29T07:33:42.255Z,83.74
2017-11-29T07:34:42.214Z,83.12
2017-11-29T07:35:42.235Z,83.22
2017-11-29T07:36:42.234Z,82.98
2017-11-29T07:37:42.248Z,83.27
2017-11-29T07:38:42.275Z,83.03
2017-11-29T07:39:42.277Z,82.89
2017-11-29T07:40:42.281Z,82.89
2017-11-29T07:41:42.293Z,83.08
2017-11-29T07:42:42.033Z,83.08
2017-11-29T07:43:42.057Z,83.22
2017-11-29T07:44:42.324Z,83.12
2017-11-29T07:45:42.065Z,83.08
2017-11-29T07:46:42.347Z,83.08
2017-11-29T07:47:42.367Z,83.08
2017-11-29T07:48:42.389Z,83.22
2017-11-29T07:49:42.108Z,83.08
2017-11-29T07:50:42.396Z,83.46
2017-11-29T07:51:42.608Z,83.17
2017-11-29T07:52:42.416Z,83.08
2017-11-29T07:53:42.152Z,82.98
2017-11-29T07:54:42.441Z,83.08
2017-11-29T07:55:42.443Z,83.59
2017-11-29T07:56:42.453Z,83.55
2017-11-29T07:57:42.468Z,83.36
2017-11-29T07:58:42.484Z,83.46
2017-11-29T07:59:42.493Z,83.03
2017-11-29T08:00:42.498Z,83.36
2017-11-29T08:01:42.243Z,83.12
2017-11-29T08:02:42.570Z,82.89
2017-11-29T08:03:42.264Z,82.98
2017-11-29T08:04:42.551Z,83.17
2017-11-29T08:05:42.566Z,82.79
2017-11-29T08:06:42.565Z,83.46
2017-11-29T08:07:42.307Z,83.5
2017-11-29T08:08:42.599Z,83.08
2017-11-29T08:09:42.601Z,83.46
2017-11-29T08:10:42.610Z,82.89
2017-11-29T08:11:42.623Z,82.98
2017-11-29T08:12:42.639Z,82.98
2017-11-29T08:13:42.374Z,82.89
2017-11-29T08:14:42.654Z,82.93
2017-11-29T08:15:42.676Z,83.17
2017-11-29T08:16:42.689Z,83.17
2017-11-29T08:17:42.690Z,82.89
2017-11-29T08:18:42.701Z,82.89
2017-11-29T08:19:42.716Z,82.79
2017-11-29T08:20:42.729Z,83.27
2017-11-29T08:21:42.728Z,83.27
2017-11-29T08:22:42.473Z,82.98
2017-11-29T08:23:42.757Z,83.08
2017-11-29T08:24:42.781Z,83.08
2017-11-29T08:25:42.510Z,83.27
2017-11-29T08:26:42.789Z,83.08
2017-11-29T08:27:42.805Z,83.08
2017-11-29T08:28:42.808Z,83.12
2017-11-29T08:29:42.829Z,82.93
2017-11-29T08:30:42.831Z,82.89
2017-11-29T08:31:42.847Z,82.89
2017-11-29T08:32:42.582Z,83.46
2017-11-29T08:33:42.879Z,83.46
2017-11-29T08:34:42.887Z,83.55
2017-11-29T08:35:42.892Z,83.65
2017-11-29T08:36:42.896Z,83.36
2017-11-29T08:37:42.635Z,83.12
2017-11-29T08:38:42.924Z,82.93
2017-11-29T08:39:42.935Z,82.89
2017-11-29T08:40:42.945Z,83.12
2017-11-29T08:41:42.954Z,83.12
2017-11-29T08:42:42.700Z,83.17
2017-11-29T08:43:42.979Z,82.89
2017-11-29T08:44:42.992Z,83.36
2017-11-29T08:45:42.995Z,83.4
2017-11-29T08:46:43.010Z,82.79
2017-11-29T08:47:43.019Z,83.46
2017-11-29T08:48:42.761Z,83.46
2017-11-29T08:49:42.772Z,83.4
2017-11-29T08:50:43.057Z,83.5
2017-11-29T08:51:43.065Z,83.22
2017-11-29T08:52:43.074Z,83.5
2017-11-29T08:53:42.815Z,83.12
2017-11-29T08:54:43.094Z,83.5
2017-11-29T08:55:43.109Z,83.46
2017-11-29T08:56:43.128Z,83.12
2017-11-29T08:57:43.128Z,82.93
2017-11-29T08:58:43.158Z,83.46
2017-11-29T08:59:43.197Z,82.93
2017-11-29T09:00:43.168Z,83.5
2017-11-29T09:01:43.176Z,82.93
2017-11-29T09:02:43.191Z,83.03
2017-11-29T09:03:43.201Z,82.93
2017-11-29T09:04:43.204Z,82.93
2017-11-29T09:05:43.220Z,83.03
2017-11-29T09:06:43.465Z,83.31
2017-11-29T09:07:43.246Z,82.93
2017-11-29T09:08:42.983Z,83.12
2017-11-29T09:09:43.263Z,83.31
2017-11-29T09:10:43.273Z,83.12
2017-11-29T09:11:43.279Z,83.03
2017-11-29T09:12:43.293Z,82.93
2017-11-29T09:13:43.304Z,83.03
2017-11-29T09:14:43.329Z,82.84
2017-11-29T09:15:43.058Z,83.03
2017-11-29T09:16:43.348Z,83.12
2017-11-29T09:17:43.353Z,83.03
2017-11-29T09:18:43.093Z,83.22
2017-11-29T09:19:43.409Z,83.31
2017-11-29T09:20:43.124Z,83.31
2017-11-29T09:21:43.389Z,83.03
2017-11-29T09:22:43.407Z,83.22
2017-11-29T09:23:43.572Z,83.03
2017-11-29T09:24:43.423Z,83.22
2017-11-29T09:25:43.464Z,83.03
2017-11-29T09:26:43.452Z,83.31
2017-11-29T09:27:43.468Z,83.31
2017-11-29T09:28:43.506Z,82.93
2017-11-29T09:29:43.494Z,83.31
2017-11-29T09:30:43.498Z,82.84
2017-11-29T09:31:43.509Z,83.31
2017-11-29T09:32:43.515Z,83.03
2017-11-29T09:33:43.525Z,82.93
2017-11-29T09:34:43.269Z,83.03
2017-11-29T09:35:43.553Z,83.12
2017-11-29T09:36:43.554Z,82.84
2017-11-29T09:37:43.571Z,83.03
2017-11-29T09:38:43.581Z,83.03
2017-11-29T09:39:43.590Z,82.93
2017-11-29T09:40:43.609Z,82.84
2017-11-29T09:41:43.612Z,82.65
2017-11-29T09:42:43.628Z,82.74
2017-11-29T09:43:43.362Z,83.12
2017-11-29T09:44:43.662Z,82.93
2017-11-29T09:45:43.659Z,82.93
2017-11-29T09:46:43.669Z,82.46
2017-11-29T09:47:43.685Z,82.74
2017-11-29T09:48:43.704Z,82.65
2017-11-29T09:49:43.436Z,83.03
2017-11-29T09:50:43.716Z,82.36
2017-11-29T09:51:43.754Z,82.93
2017-11-29T09:52:43.502Z,82.84
2017-11-29T09:53:43.485Z,82.46
2017-11-29T09:54:43.782Z,82.65
2017-11-29T09:55:43.782Z,82.93
2017-11-29T09:56:43.803Z,82.93
2017-11-29T09:57:43.798Z,83.12
2017-11-29T09:58:43.536Z,83.03
2017-11-29T09:59:43.828Z,82.55
2017-11-29T10:00:43.559Z,82.69
2017-11-29T10:01:43.568Z,82.46
2017-11-29T10:02:43.859Z,82.97
2017-11-29T10:03:43.866Z,82.84
2017-11-29T10:04:43.873Z,82.93
2017-11-29T10:05:43.888Z,82.5
2017-11-29T10:06:43.904Z,82.78
2017-11-29T10:07:43.912Z,82.97
2017-11-29T10:08:43.933Z,82.78
2017-11-29T10:09:43.667Z,82.88
2017-11-29T10:10:43.681Z,82.5
2017-11-29T10:11:43.682Z,82.97
2017-11-29T10:12:43.966Z,82.78
2017-11-29T10:13:43.979Z,82.69
2017-11-29T10:14:43.999Z,83.26
2017-11-29T10:15:44.008Z,82.69
2017-11-29T10:16:44.014Z,83.16
2017-11-29T10:17:44.029Z,82.78
2017-11-29T10:18:43.765Z,82.5
2017-11-29T10:19:44.045Z,82.88
2017-11-29T10:20:43.794Z,82.31
2017-11-29T10:21:44.065Z,82.21
2017-11-29T10:22:44.081Z,82.21
2017-11-29T10:23:44.097Z,82.69
2017-11-29T10:24:44.105Z,82.97
2017-11-29T10:25:44.117Z,82.88
2017-11-29T10:26:43.855Z,82.97
2017-11-29T10:27:44.140Z,82.97
2017-11-29T10:28:44.151Z,82.5
2017-11-29T10:29:44.181Z,82.21
2017-11-29T10:30:43.905Z,82.5
2017-11-29T10:31:44.185Z,83.07
2017-11-29T10:32:44.197Z,83.16
2017-11-29T10:33:44.207Z,82.88
2017-11-29T10:34:44.220Z,82.97
2017-11-29T10:35:44.233Z,82.78
2017-11-29T10:36:44.241Z,82.5
2017-11-29T10:37:44.253Z,82.21
2017-11-29T10:38:43.996Z,82.97
2017-11-29T10:39:44.276Z,82.5
2017-11-29T10:40:44.017Z,82.4
2017-11-29T10:41:44.309Z,82.59
2017-11-29T10:42:44.039Z,82.31
2017-11-29T10:43:44.324Z,82.5
2017-11-29T10:44:44.065Z,82.31
2017-11-29T10:45:44.352Z,82.69
2017-11-29T10:46:44.086Z,82.03
2017-11-29T10:47:44.098Z,82.21
2017-11-29T10:48:44.381Z,82.21
2017-11-29T10:49:44.393Z,82.21
2017-11-29T10:50:44.410Z,81.84
2017-11-29T10:51:44.415Z,82.03
2017-11-29T10:52:44.437Z,82.03
2017-11-29T10:53:44.447Z,82.03
2017-11-29T10:54:44.454Z,82.31
2017-11-29T10:55:44.462Z,81.93
2017-11-29T10:56:44.201Z,82.21
2017-11-29T10:57:44.215Z,82.31
2017-11-29T10:58:44.227Z,82.31
2017-11-29T10:59:44.239Z,82.31
2017-11-29T11:00:44.247Z,82.31
2017-11-29T11:01:44.261Z,82.12
2017-11-29T11:02:44.543Z,81.84
2017-11-29T11:03:44.286Z,82.21
2017-11-29T11:04:44.567Z,82.31
2017-11-29T11:05:44.580Z,81.74
2017-11-29T11:06:44.595Z,82.21
2017-11-29T11:07:44.614Z,82.07
2017-11-29T11:08:44.635Z,82.21
2017-11-29T11:09:44.632Z,82.31
2017-11-29T11:10:44.638Z,82.07
2017-11-29T11:11:44.653Z,82.21
2017-11-29T11:12:44.661Z,81.68
2017-11-29T11:13:44.407Z,81.45
2017-11-29T11:14:44.692Z,81.59
2017-11-29T11:15:44.702Z,81.78
2017-11-29T11:16:44.708Z,81.68
2017-11-29T11:17:44.734Z,81.68
2017-11-29T11:18:44.781Z,81.78
2017-11-29T11:19:44.759Z,81.78
2017-11-29T11:20:44.758Z,81.78
2017-11-29T11:21:44.773Z,81.68
2017-11-29T11:22:44.783Z,81.68
2017-11-29T11:23:44.789Z,81.78
2017-11-29T11:24:44.535Z,81.87
2017-11-29T11:25:44.825Z,81.87
2017-11-29T11:26:44.832Z,81.68
2017-11-29T11:27:44.871Z,81.49
2017-11-29T11:28:44.854Z,81.59
2017-11-29T11:29:44.866Z,81.68
2017-11-29T11:30:44.877Z,82.07
2017-11-29T11:31:44.617Z,81.68
2017-11-29T11:32:44.904Z,82.26
2017-11-29T11:33:44.644Z,82.07
2017-11-29T11:34:44.925Z,81.97
2017-11-29T11:35:44.943Z,81.68
2017-11-29T11:36:44.951Z,81.59
2017-11-29T11:37:44.962Z,81.78
2017-11-29T11:38:44.975Z,81.68
2017-11-29T11:39:44.986Z,81.87
2017-11-29T11:40:44.996Z,81.68
2017-11-29T11:41:45.023Z,82.35
2017-11-29T11:42:44.752Z,81.68
2017-11-29T11:43:45.038Z,81.92
2017-11-29T11:44:45.053Z,81.68
2017-11-29T11:45:44.793Z,81.49
2017-11-29T11:46:45.085Z,81.68
2017-11-29T11:47:45.086Z,81.68
2017-11-29T11:48:45.093Z,81.82
2017-11-29T11:49:44.836Z,81.92
2017-11-29T11:50:44.847Z,81.82
2017-11-29T11:51:45.127Z,81.54
2017-11-29T11:52:45.148Z,81.44
2017-11-29T11:53:45.160Z,81.82
2017-11-29T11:54:45.172Z,81.73
2017-11-29T11:55:45.176Z,81.63
2017-11-29T11:56:44.921Z,81.63
2017-11-29T11:57:45.235Z,81.82
2017-11-29T11:58:45.216Z,81.44
2017-11-29T11:59:45.227Z,81.82
2017-11-29T12:00:45.241Z,81.44
2017-11-29T12:01:45.252Z,81.73
2017-11-29T12:02:44.995Z,81.63
2017-11-29T12:03:45.277Z,82.1
2017-11-29T12:04:45.292Z,81.63
2017-11-29T12:05:45.314Z,81.63
2017-11-29T12:06:45.324Z,81.73
2017-11-29T12:07:45.324Z,81.63
2017-11-29T12:08:45.347Z,81.92
2017-11-29T12:09:45.352Z,81.54
2017-11-29T12:10:45.103Z,82.01
2017-11-29T12:11:45.377Z,81.44
2017-11-29T12:12:45.393Z,81.82
2017-11-29T12:13:45.404Z,81.44
2017-11-29T12:14:45.425Z,81.54
2017-11-29T12:15:45.424Z,81.35
2017-11-29T12:16:45.169Z,81.35
2017-11-29T12:17:45.454Z,81.73
2017-11-29T12:18:45.470Z,81.16
2017-11-29T12:19:45.480Z,80.96
2017-11-29T12:20:45.493Z,81.16
2017-11-29T12:21:45.502Z,81.16
2017-11-29T12:22:45.515Z,81.16
2017-11-29T12:23:45.525Z,80.87
2017-11-29T12:24:45.268Z,80.96
2017-11-29T12:25:45.552Z,81.06
2017-11-29T12:26:45.294Z,81.16
2017-11-29T12:27:45.580Z,81.06
2017-11-29T12:28:45.319Z,80.96
2017-11-29T12:29:45.336Z,81.06
2017-11-29T12:30:45.614Z,81.25
2017-11-29T12:31:45.621Z,81.25
2017-11-29T12:32:45.646Z,81.25
2017-11-29T12:33:45.652Z,81.16
2017-11-29T12:34:45.668Z,80.87
2017-11-29T12:35:45.678Z,80.68
2017-11-29T12:36:45.688Z,80.87
2017-11-29T12:37:45.700Z,80.87
2017-11-29T12:38:45.717Z,80.87
2017-11-29T12:39:45.725Z,80.68
2017-11-29T12:40:45.741Z,80.3
2017-11-29T12:41:45.750Z,80.68
2017-11-29T12:42:45.770Z,80.96
2017-11-29T12:43:45.780Z,80.58
2017-11-29T12:44:45.787Z,80.53
2017-11-29T12:45:45.801Z,80.4
2017-11-29T12:46:45.814Z,80.49
2017-11-29T12:47:45.835Z,80.58
2017-11-29T12:48:45.843Z,80.49
2017-11-29T12:49:45.852Z,80.34
2017-11-29T12:50:45.594Z,80.34
2017-11-29T12:51:45.895Z,80.53
2017-11-29T12:52:45.891Z,80.63
2017-11-29T12:53:45.904Z,80.63
2017-11-29T12:54:45.919Z,80.53
2017-11-29T12:55:45.926Z,80.53